createdAt,value
2023-06-11T00:02:34.249Z,99194.16
2023-06-11T00:05:05.384Z,99190.06
2023-06-11T00:07:34.253Z,99192.00
2023-06-11T00:10:04.594Z,99193.84
2023-06-11T00:12:35.224Z,99195.41
2023-06-11T00:15:04.137Z,99190.16
2023-06-11T00:17:34.906Z,99200.16
2023-06-11T00:20:05.139Z,99188.28
2023-06-11T00:22:34.228Z,99193.13
2023-06-11T00:25:02.995Z,99194.19
2023-06-11T00:27:31.741Z,99190.97
2023-06-11T00:30:02.613Z,99196.63
2023-06-11T00:32:31.976Z,99198.13
2023-06-11T00:35:02.507Z,99194.31
2023-06-11T00:37:33.580Z,99203.53
2023-06-11T00:40:02.675Z,99195.81
2023-06-11T00:42:31.588Z,99200.75
2023-06-11T00:45:02.648Z,99206.22
2023-06-11T00:47:32.002Z,99208.19
2023-06-11T00:50:03.573Z,99210.94
2023-06-11T00:52:32.472Z,99206.97
2023-06-11T00:55:01.949Z,99215.59
2023-06-11T00:57:30.864Z,99208.94
2023-06-11T01:00:02.041Z,99210.59
2023-06-11T01:02:40.183Z,99205.22
2023-06-11T01:05:14.085Z,99211.63
2023-06-11T01:07:51.606Z,99205.00
2023-06-11T01:10:28.025Z,99212.34
2023-06-11T01:12:58.945Z,99212.56
2023-06-11T01:15:28.758Z,99209.91
2023-06-11T01:18:06.837Z,99212.69
2023-06-11T01:20:46.441Z,99215.38
2023-06-11T01:23:32.522Z,99212.16
2023-06-11T01:26:43.570Z,99211.47
2023-06-11T01:29:17.928Z,99210.94
2023-06-11T01:31:47.638Z,99210.38
2023-06-11T01:34:18.358Z,99212.00
2023-06-11T01:36:49.645Z,99217.66
2023-06-11T01:39:20.345Z,99225.38
2023-06-11T01:42:01.260Z,99213.31
2023-06-11T01:44:33.642Z,99211.41
2023-06-11T01:47:02.607Z,99219.41
2023-06-11T01:49:32.093Z,99219.72
2023-06-11T01:52:00.944Z,99221.22
2023-06-11T01:54:29.913Z,99218.69
2023-06-11T01:56:58.750Z,99225.19
2023-06-11T01:59:28.025Z,99224.13
2023-06-11T02:01:58.364Z,99220.38
2023-06-11T02:04:27.324Z,99228.84
2023-06-11T02:06:56.729Z,99224.53
2023-06-11T02:09:25.619Z,99223.78
2023-06-11T02:11:54.706Z,99220.50
2023-06-11T02:14:23.593Z,99224.59
2023-06-11T02:16:52.889Z,99219.16
2023-06-11T02:19:23.668Z,99228.75
2023-06-11T02:21:52.636Z,99223.00
2023-06-11T02:24:21.716Z,99218.00
2023-06-11T02:26:50.695Z,99220.50
2023-06-11T02:29:19.602Z,99218.75
2023-06-11T02:31:48.749Z,99224.63
2023-06-11T02:34:19.332Z,99216.13
2023-06-11T02:36:50.269Z,99224.28
2023-06-11T02:39:19.407Z,99220.59
2023-06-11T02:41:48.265Z,99228.28
2023-06-11T02:44:17.057Z,99231.13
2023-06-11T02:46:45.874Z,99228.16
2023-06-11T02:49:14.900Z,99222.00
2023-06-11T02:51:43.737Z,99233.63
2023-06-11T02:54:13.927Z,99242.19
2023-06-11T02:56:43.004Z,99237.41
2023-06-11T02:59:11.887Z,99243.78
2023-06-11T03:01:41.768Z,99245.22
2023-06-11T03:04:11.945Z,99246.50
2023-06-11T03:06:41.737Z,99244.00
2023-06-11T03:09:10.980Z,99241.81
2023-06-11T03:11:41.272Z,99244.25
2023-06-11T03:14:10.197Z,99243.72
2023-06-11T03:16:39.193Z,99242.25
2023-06-11T03:19:08.121Z,99243.44
2023-06-11T03:21:37.594Z,99247.00
2023-06-11T03:24:07.849Z,99251.09
2023-06-11T03:26:36.864Z,99256.41
2023-06-11T03:29:07.078Z,99249.97
2023-06-11T03:31:45.136Z,99246.03
2023-06-11T03:34:14.225Z,99249.16
2023-06-11T03:36:43.031Z,99251.34
2023-06-11T03:39:18.112Z,99250.34
2023-06-11T03:41:49.622Z,99251.84
2023-06-11T03:44:21.176Z,99243.94
2023-06-11T03:46:50.308Z,99247.97
2023-06-11T03:49:19.251Z,99245.34
2023-06-11T03:51:48.229Z,99251.38
2023-06-11T03:54:17.185Z,99257.97
2023-06-11T03:56:46.603Z,99255.81
2023-06-11T03:59:16.091Z,99259.06
2023-06-11T04:01:47.273Z,99265.41
2023-06-11T04:04:17.392Z,99263.00
2023-06-11T04:06:48.289Z,99266.06
2023-06-11T04:09:24.446Z,99262.97
2023-06-11T04:11:53.546Z,99269.00
2023-06-11T04:14:23.537Z,99262.66
2023-06-11T04:16:54.437Z,99265.09
2023-06-11T04:19:23.466Z,99263.41
2023-06-11T04:21:54.452Z,99263.50
2023-06-11T04:24:25.731Z,99264.28
2023-06-11T04:26:54.888Z,99257.97
2023-06-11T04:29:24.252Z,99266.19
2023-06-11T04:32:22.572Z,99263.47
2023-06-11T04:34:51.670Z,99263.56
2023-06-11T04:37:21.486Z,99258.41
2023-06-11T04:39:52.211Z,99262.97
2023-06-11T04:42:21.613Z,99261.84
2023-06-11T04:44:51.405Z,99256.88
2023-06-11T04:47:23.940Z,99257.91
2023-06-11T04:49:55.687Z,99260.66
2023-06-11T04:52:27.937Z,99261.31
2023-06-11T04:54:57.464Z,99260.84
2023-06-11T04:57:26.859Z,99259.69
2023-06-11T04:59:57.504Z,99264.09
2023-06-11T05:02:29.772Z,99260.47
2023-06-11T05:04:58.885Z,99265.97
2023-06-11T05:07:28.867Z,99255.16
2023-06-11T05:09:58.187Z,99253.38
2023-06-11T05:12:27.497Z,99252.81
2023-06-11T05:14:57.864Z,99259.31
2023-06-11T05:17:30.462Z,99259.47
2023-06-11T05:20:00.489Z,99261.22
2023-06-11T05:22:31.363Z,99258.34
2023-06-11T05:25:01.943Z,99261.97
2023-06-11T05:27:35.318Z,99254.06
2023-06-11T05:30:10.406Z,99260.72
2023-06-11T05:32:45.678Z,99267.09
2023-06-11T05:35:19.917Z,99272.97
2023-06-11T05:37:50.687Z,99271.56
2023-06-11T05:40:21.103Z,99266.88
2023-06-11T05:42:50.273Z,99270.13
2023-06-11T05:45:20.822Z,99272.09
2023-06-11T05:47:51.525Z,99278.19
2023-06-11T05:50:21.717Z,99270.75
2023-06-11T05:52:51.721Z,99277.59
2023-06-11T05:55:21.757Z,99278.50
2023-06-11T05:57:50.869Z,99277.50
2023-06-11T06:00:21.136Z,99269.47
2023-06-11T06:02:56.787Z,99271.72
2023-06-11T06:05:31.114Z,99278.78
2023-06-11T06:08:00.059Z,99275.31
2023-06-11T06:10:28.937Z,99278.91
2023-06-11T06:12:58.073Z,99278.69
2023-06-11T06:15:27.409Z,99271.72
2023-06-11T06:17:58.121Z,99274.44
2023-06-11T06:20:39.520Z,99281.78
2023-06-11T06:23:08.307Z,99285.88
2023-06-11T06:25:39.590Z,99283.72
2023-06-11T06:28:11.803Z,99285.41
2023-06-11T06:30:41.213Z,99288.69
2023-06-11T06:33:13.330Z,99290.84
2023-06-11T06:35:42.236Z,99294.38
2023-06-11T06:38:11.166Z,99293.31
2023-06-11T06:40:40.422Z,99282.22
2023-06-11T06:43:09.665Z,99287.06
2023-06-11T06:45:56.425Z,99290.31
2023-06-11T06:48:39.355Z,99281.38
2023-06-11T06:51:26.781Z,99287.59
2023-06-11T06:53:55.643Z,99282.19
2023-06-11T06:57:06.811Z,99291.38
2023-06-11T06:59:35.809Z,99292.41
2023-06-11T07:02:07.336Z,99287.53
2023-06-11T07:04:41.424Z,99289.97
2023-06-11T07:07:10.580Z,99284.25
2023-06-11T07:09:41.113Z,99285.84
2023-06-11T07:12:12.052Z,99284.16
2023-06-11T07:14:41.105Z,99285.75
2023-06-11T07:17:10.083Z,99278.38
2023-06-11T07:23:13.885Z,99273.63
2023-06-11T07:25:45.837Z,99281.16
2023-06-11T07:28:15.587Z,99274.59
2023-06-11T07:30:44.464Z,99277.75
2023-06-11T07:33:13.683Z,99277.69
2023-06-11T07:35:48.177Z,99277.34
2023-06-11T07:38:21.978Z,99282.97
2023-06-11T07:40:50.900Z,99282.94
2023-06-11T07:43:19.877Z,99287.69
2023-06-11T07:45:49.990Z,99280.03
2023-06-11T07:48:21.387Z,99283.72
2023-06-11T07:50:54.913Z,99282.47
2023-06-11T07:53:26.778Z,99278.16
2023-06-11T07:55:58.379Z,99272.28
2023-06-11T07:58:27.528Z,99273.72
2023-06-11T08:00:56.404Z,99272.25
2023-06-11T08:03:25.270Z,99278.44
2023-06-11T08:05:55.556Z,99273.66
2023-06-11T08:08:24.319Z,99272.56
2023-06-11T08:10:53.180Z,99269.47
2023-06-11T08:13:23.132Z,99268.00
2023-06-11T08:15:51.964Z,99260.50
2023-06-11T08:18:20.949Z,99265.50
2023-06-11T08:20:52.281Z,99260.09
2023-06-11T08:23:28.373Z,99266.97
2023-06-11T08:26:00.226Z,99262.69
2023-06-11T08:28:29.490Z,99264.00
2023-06-11T08:30:59.442Z,99265.84
2023-06-11T08:33:28.398Z,99263.47
2023-06-11T08:35:57.150Z,99263.03
2023-06-11T08:38:29.452Z,99262.13
2023-06-11T08:40:58.463Z,99263.00
2023-06-11T08:43:27.343Z,99260.03
2023-06-11T08:45:56.220Z,99258.81
2023-06-11T08:48:30.350Z,99260.34
2023-06-11T08:51:02.982Z,99255.28
2023-06-11T08:53:33.335Z,99254.91
2023-06-11T08:56:02.325Z,99249.53
2023-06-11T08:58:35.957Z,99247.34
2023-06-11T09:01:11.478Z,99254.63
2023-06-11T09:03:45.073Z,99248.94
2023-06-11T09:06:14.146Z,99252.00
2023-06-11T09:08:44.307Z,99247.34
2023-06-11T09:11:17.468Z,99248.16
2023-06-11T09:13:46.952Z,99247.34
2023-06-11T09:16:15.706Z,99235.16
2023-06-11T09:18:45.995Z,99239.03
2023-06-11T09:21:16.308Z,99234.56
2023-06-11T09:23:48.042Z,99235.22
2023-06-11T09:26:19.935Z,99238.56
2023-06-11T09:28:51.713Z,99239.56
2023-06-11T09:31:23.478Z,99240.47
2023-06-11T09:33:55.525Z,99241.63
2023-06-11T09:36:27.397Z,99235.25
2023-06-11T09:38:57.889Z,99235.34
2023-06-11T09:41:28.408Z,99231.44
2023-06-11T09:44:12.972Z,99231.94
2023-06-11T09:46:43.071Z,99225.41
2023-06-11T09:49:14.468Z,99220.47
2023-06-11T09:51:44.858Z,99229.81
2023-06-11T09:54:15.990Z,99230.13
2023-06-11T09:56:50.793Z,99233.34
2023-06-11T09:59:21.983Z,99232.38
2023-06-11T10:01:53.361Z,99231.94
2023-06-11T10:04:22.619Z,99242.28
2023-06-11T10:06:53.328Z,99240.84
2023-06-11T10:09:24.340Z,99240.69
2023-06-11T10:11:56.383Z,99234.44
2023-06-11T10:14:26.576Z,99233.84
2023-06-11T10:16:57.613Z,99228.03
2023-06-11T10:19:36.248Z,99232.88
2023-06-11T10:22:05.870Z,99226.50
2023-06-11T10:24:36.296Z,99231.91
2023-06-11T10:27:13.838Z,99233.22
2023-06-11T10:29:44.626Z,99226.09
2023-06-11T10:32:18.310Z,99210.59
2023-06-11T10:34:49.973Z,99229.78
2023-06-11T10:37:32.577Z,99226.69
2023-06-11T10:40:02.799Z,99222.09
2023-06-11T10:42:39.549Z,99224.50
2023-06-11T10:45:10.512Z,99230.47
2023-06-11T10:47:45.511Z,99241.31
2023-06-11T10:50:16.940Z,99250.16
2023-06-11T10:52:52.559Z,99236.75
2023-06-11T10:55:26.250Z,99236.13
2023-06-11T10:57:56.008Z,99240.00
2023-06-11T11:00:34.656Z,99238.28
2023-06-11T11:03:06.989Z,99233.72
2023-06-11T11:05:36.171Z,99228.34
2023-06-11T11:08:05.013Z,99236.41
2023-06-11T11:10:35.602Z,99233.13
2023-06-11T11:13:05.551Z,99227.88
2023-06-11T11:15:34.275Z,99215.75
2023-06-11T11:18:05.183Z,99223.91
2023-06-11T11:20:34.682Z,99225.25
2023-06-11T11:23:03.674Z,99230.63
2023-06-11T11:25:33.589Z,99219.38
2023-06-11T11:28:03.760Z,99218.16
2023-06-11T11:30:32.512Z,99223.75
2023-06-11T11:33:01.770Z,99217.34
2023-06-11T11:35:31.041Z,99229.41
2023-06-11T11:37:59.899Z,99230.78
2023-06-11T11:40:30.454Z,99232.16
2023-06-11T11:43:00.037Z,99225.25
2023-06-11T11:45:35.919Z,99217.19
2023-06-11T11:48:05.818Z,99214.16
2023-06-11T11:50:35.753Z,99206.28
2023-06-11T11:53:07.220Z,99205.66
2023-06-11T11:55:51.660Z,99211.16
2023-06-11T11:58:25.347Z,99212.69
2023-06-11T12:00:58.010Z,99210.56
2023-06-11T12:03:27.019Z,99206.75
2023-06-11T12:06:01.364Z,99199.97
2023-06-11T12:08:31.752Z,99203.00
2023-06-11T12:11:02.292Z,99198.44
2023-06-11T12:13:31.167Z,99209.00
2023-06-11T12:16:04.561Z,99198.72
2023-06-11T12:18:34.408Z,99206.22
2023-06-11T12:21:03.345Z,99200.88
2023-06-11T12:23:32.109Z,99205.19
2023-06-11T12:26:02.611Z,99196.56
2023-06-11T12:31:31.697Z,99198.19
2023-06-11T12:34:00.442Z,99197.50
2023-06-11T12:36:29.196Z,99191.91
2023-06-11T12:38:57.864Z,99191.63
2023-06-11T12:41:27.053Z,99196.16
2023-06-11T12:43:55.824Z,99192.56
2023-06-11T12:46:24.513Z,99183.88
2023-06-11T12:48:54.713Z,99180.72
2023-06-11T12:51:23.926Z,99176.63
2023-06-11T12:53:53.991Z,99173.88
2023-06-11T12:56:24.297Z,99182.69
2023-06-11T12:58:53.198Z,99181.59
2023-06-11T13:01:22.231Z,99184.06
2023-06-11T13:03:51.074Z,99177.00
2023-06-11T13:06:21.625Z,99181.38
2023-06-11T13:08:51.712Z,99176.38
2023-06-11T13:11:20.486Z,99162.75
2023-06-11T13:13:49.190Z,99181.50
2023-06-11T13:16:18.021Z,99180.25
2023-06-11T13:18:47.273Z,99172.94
2023-06-11T13:21:17.551Z,99167.59
2023-06-11T13:23:47.740Z,99172.44
2023-06-11T13:26:16.430Z,99177.31
2023-06-11T13:28:45.266Z,99168.13
2023-06-11T13:31:14.540Z,99169.84
2023-06-11T13:33:43.885Z,99169.19
2023-06-11T13:36:12.886Z,99165.75
2023-06-11T13:38:42.652Z,99161.41
2023-06-11T13:41:12.845Z,99171.13
2023-06-11T13:43:41.548Z,99172.41
2023-06-11T13:46:10.955Z,99161.66
2023-06-11T13:48:39.693Z,99165.28
2023-06-11T13:51:08.793Z,99174.47
2023-06-11T13:53:37.514Z,99162.06
2023-06-11T13:56:06.692Z,99164.16
2023-06-11T13:58:36.926Z,99160.59
2023-06-11T14:01:05.773Z,99163.13
2023-06-11T14:03:34.570Z,99162.00
2023-06-11T14:06:05.395Z,99168.00
2023-06-11T14:08:34.097Z,99167.28
2023-06-11T14:11:02.909Z,99164.50
2023-06-11T14:13:31.597Z,99166.50
2023-06-11T14:16:01.888Z,99164.97
2023-06-11T14:18:30.725Z,99172.88
2023-06-11T14:20:59.517Z,99168.13
2023-06-11T14:23:28.416Z,99159.75
2023-06-11T14:25:57.136Z,99157.69
2023-06-11T14:28:25.869Z,99156.09
2023-06-11T14:30:56.098Z,99154.59
2023-06-11T14:33:26.739Z,99164.91
2023-06-11T14:35:55.715Z,99158.56
2023-06-11T14:38:24.384Z,99152.03
2023-06-11T14:40:53.231Z,99142.28
2023-06-11T14:43:24.218Z,99153.69
2023-06-11T14:45:53.281Z,99152.03
2023-06-11T14:48:23.147Z,99147.22
2023-06-11T14:50:53.533Z,99150.69
2023-06-11T14:53:22.921Z,99138.53
2023-06-11T14:55:56.351Z,99142.50
2023-06-11T14:58:25.350Z,99146.47
2023-06-11T15:00:54.142Z,99144.16
2023-06-11T15:03:22.917Z,99139.44
2023-06-11T15:05:53.313Z,99154.09
2023-06-11T15:08:22.002Z,99150.44
2023-06-11T15:10:50.798Z,99145.06
2023-06-11T15:13:19.449Z,99151.97
2023-06-11T15:15:48.458Z,99143.59
2023-06-11T15:18:17.180Z,99137.81
2023-06-11T15:20:46.215Z,99136.38
2023-06-11T15:23:16.385Z,99136.56
2023-06-11T15:25:45.368Z,99130.03
2023-06-11T15:28:14.186Z,99136.41
2023-06-11T15:30:42.971Z,99140.22
2023-06-11T15:33:11.871Z,99135.31
2023-06-11T15:35:42.001Z,99134.59
2023-06-11T15:38:11.257Z,99132.03
2023-06-11T15:40:41.435Z,99133.28
2023-06-11T15:43:12.108Z,99136.75
2023-06-11T15:45:40.853Z,99136.97
2023-06-11T15:48:09.613Z,99131.34
2023-06-11T15:50:38.567Z,99128.31
2023-06-11T15:53:07.237Z,99128.47
2023-06-11T15:55:35.963Z,99129.91
2023-06-11T15:58:08.891Z,99127.25
2023-06-11T16:00:37.832Z,99128.22
2023-06-11T16:03:06.821Z,99118.59
2023-06-11T16:05:35.687Z,99121.81
2023-06-11T16:08:04.580Z,99125.97
2023-06-11T16:10:34.092Z,99118.88
2023-06-11T16:13:11.897Z,99119.84
2023-06-11T16:15:47.811Z,99119.16
2023-06-11T16:18:21.274Z,99117.06
2023-06-11T16:20:51.183Z,99108.06
2023-06-11T16:23:20.389Z,99111.56
2023-06-11T16:25:58.186Z,99116.75
2023-06-11T16:28:29.643Z,99111.56
2023-06-11T16:30:58.512Z,99121.94
2023-06-11T16:33:30.874Z,99120.25
2023-06-11T16:36:07.644Z,99112.16
2023-06-11T16:38:36.475Z,99115.81
2023-06-11T16:41:06.375Z,99121.53
2023-06-11T16:43:36.730Z,99121.78
2023-06-11T16:46:05.904Z,99120.13
2023-06-11T16:48:35.794Z,99117.84
2023-06-11T16:51:04.674Z,99112.34
2023-06-11T16:53:33.474Z,99120.47
2023-06-11T16:56:02.567Z,99116.34
2023-06-11T16:58:32.745Z,99114.16
2023-06-11T17:01:16.431Z,99116.69
2023-06-11T17:03:48.046Z,99107.97
2023-06-11T17:06:18.016Z,99110.84
2023-06-11T17:08:46.970Z,99110.69
2023-06-11T17:11:15.696Z,99114.34
2023-06-11T17:13:44.383Z,99115.44
2023-06-11T17:16:14.898Z,99107.41
2023-06-11T17:18:43.880Z,99116.56
2023-06-11T17:21:13.675Z,99110.59
2023-06-11T17:23:45.172Z,99112.06
2023-06-11T17:26:16.435Z,99114.22
2023-06-11T17:28:49.608Z,99113.53
2023-06-11T17:31:21.099Z,99118.88
2023-06-11T17:33:50.229Z,99118.75
2023-06-11T17:36:19.883Z,99118.28
2023-06-11T17:38:48.720Z,99118.66
2023-06-11T17:41:17.961Z,99115.00
2023-06-11T17:43:47.460Z,99111.75
2023-06-11T17:46:21.042Z,99110.84
2023-06-11T17:48:51.249Z,99111.66
2023-06-11T17:51:20.416Z,99109.75
2023-06-11T17:53:49.882Z,99113.97
2023-06-11T17:56:19.986Z,99118.06
2023-06-11T17:58:49.081Z,99111.63
2023-06-11T18:01:21.651Z,99111.38
2023-06-11T18:03:52.215Z,99123.41
2023-06-11T18:06:54.238Z,99116.69
2023-06-11T18:09:23.026Z,99124.72
2023-06-11T18:11:53.187Z,99127.69
2023-06-11T18:14:23.657Z,99123.47
2023-06-11T18:16:56.179Z,99124.16
2023-06-11T18:19:27.132Z,99124.78
2023-06-11T18:21:56.069Z,99120.19
2023-06-11T18:24:29.404Z,99123.44
2023-06-11T18:26:59.376Z,99124.13
2023-06-11T18:29:29.317Z,99120.44
2023-06-11T18:32:02.157Z,99125.63
2023-06-11T18:34:32.453Z,99122.09
2023-06-11T18:37:01.365Z,99126.00
2023-06-11T18:39:31.412Z,99130.22
2023-06-11T18:42:14.976Z,99130.91
2023-06-11T18:44:45.655Z,99130.25
2023-06-11T18:47:18.400Z,99128.00
2023-06-11T18:49:47.492Z,99129.78
2023-06-11T18:52:17.933Z,99139.63
2023-06-11T18:54:48.388Z,99140.09
2023-06-11T18:57:20.912Z,99128.81
2023-06-11T18:59:49.654Z,99142.13
2023-06-11T19:02:22.371Z,99145.50
2023-06-11T19:04:51.187Z,99138.56
2023-06-11T19:07:20.375Z,99145.78
2023-06-11T19:09:49.134Z,99144.88
2023-06-11T19:12:17.841Z,99148.63
2023-06-11T19:14:48.567Z,99148.09
2023-06-11T19:17:18.650Z,99155.44
2023-06-11T19:19:48.847Z,99154.63
2023-06-11T19:22:17.654Z,99160.66
2023-06-11T19:24:46.477Z,99156.28
2023-06-11T19:32:36.419Z,99165.78
2023-06-11T19:35:08.342Z,99177.19
2023-06-11T19:37:37.116Z,99176.81
2023-06-11T19:40:08.149Z,99181.84
2023-06-11T19:42:37.102Z,99182.28
2023-06-11T19:45:10.201Z,99178.44
2023-06-11T19:47:39.384Z,99183.09
2023-06-11T19:50:12.383Z,99186.94
2023-06-11T19:53:24.748Z,99188.56
2023-06-11T19:56:20.162Z,99195.63
2023-06-11T19:58:49.247Z,99192.78
2023-06-11T20:01:18.561Z,99187.56
2023-06-11T20:03:47.391Z,99196.81
2023-06-11T20:06:18.188Z,99205.69
2023-06-11T20:08:51.757Z,99205.28
2023-06-11T20:11:22.227Z,99200.06
2023-06-11T20:13:51.110Z,99203.38
2023-06-11T20:16:19.881Z,99210.63
2023-06-11T20:18:48.745Z,99212.06
2023-06-11T20:21:37.278Z,99210.19
2023-06-11T20:24:08.736Z,99220.09
2023-06-11T20:26:44.179Z,99219.81
2023-06-11T20:29:13.770Z,99224.97
2023-06-11T20:31:42.782Z,99227.63
2023-06-11T20:36:33.730Z,99227.84
2023-06-11T20:45:27.551Z,99235.41
2023-06-11T20:48:04.580Z,99224.72
2023-06-11T20:50:33.502Z,99235.28
2023-06-11T20:53:02.631Z,99230.28
2023-06-11T20:55:32.802Z,99245.31
2023-06-11T20:58:10.914Z,99235.16
2023-06-11T21:00:40.056Z,99234.97
2023-06-11T21:03:37.454Z,99235.41
2023-06-11T21:07:05.571Z,99230.63
2023-06-11T21:09:34.388Z,99244.00
2023-06-11T21:12:06.703Z,99237.28
2023-06-11T21:14:35.446Z,99244.03
2023-06-11T21:17:04.420Z,99240.41
2023-06-11T21:19:33.395Z,99237.91
2023-06-11T21:22:02.293Z,99242.41
2023-06-11T21:24:31.099Z,99246.75
2023-06-11T21:30:46.332Z,99251.75
2023-06-11T21:36:08.832Z,99251.25
2023-06-11T21:38:37.700Z,99249.28
2023-06-11T21:41:44.744Z,99257.78
2023-06-11T21:44:16.959Z,99248.88
2023-06-11T21:47:15.711Z,99253.19
2023-06-11T21:50:11.059Z,99247.88
2023-06-11T21:55:43.884Z,99253.06
2023-06-11T22:01:41.469Z,99247.34
2023-06-11T22:04:20.832Z,99252.34
2023-06-11T22:06:54.101Z,99245.06
2023-06-11T22:09:36.201Z,99247.50
2023-06-11T22:12:07.600Z,99248.06
2023-06-11T22:14:38.092Z,99252.94
2023-06-11T22:17:08.791Z,99248.03
2023-06-11T22:19:39.879Z,99249.91
2023-06-11T22:22:12.199Z,99250.22
2023-06-11T22:24:41.788Z,99251.03
2023-06-11T22:27:13.402Z,99246.94
2023-06-11T22:29:42.346Z,99254.53
2023-06-11T22:32:16.531Z,99259.19
2023-06-11T22:34:46.726Z,99264.34
2023-06-11T22:37:15.497Z,99257.84
2023-06-11T22:39:44.279Z,99253.25
2023-06-11T22:42:13.379Z,99254.59
2023-06-11T22:44:42.468Z,99252.97
2023-06-11T22:47:12.117Z,99260.28
2023-06-11T22:49:41.474Z,99253.47
2023-06-11T22:52:12.688Z,99256.97
2023-06-11T22:54:41.461Z,99259.94
2023-06-11T22:57:10.192Z,99255.84
2023-06-11T22:59:38.918Z,99254.50
2023-06-11T23:02:07.774Z,99260.16
2023-06-11T23:04:36.653Z,99258.75
2023-06-11T23:07:06.121Z,99253.59
2023-06-11T23:09:36.300Z,99259.84
2023-06-11T23:12:06.228Z,99261.56
2023-06-11T23:14:35.225Z,99259.88
2023-06-11T23:17:05.111Z,99256.84
2023-06-11T23:19:34.528Z,99258.66
2023-06-11T23:22:03.336Z,99258.41
2023-06-11T23:24:32.607Z,99260.91
2023-06-11T23:27:04.410Z,99259.47
2023-06-11T23:29:33.864Z,99253.81
2023-06-11T23:32:02.972Z,99254.53
2023-06-11T23:34:31.881Z,99251.00
2023-06-11T23:37:00.992Z,99248.31
2023-06-11T23:39:30.493Z,99245.69
2023-06-11T23:41:59.272Z,99241.91
2023-06-11T23:44:29.716Z,99239.16
2023-06-11T23:46:58.425Z,99245.53
2023-06-11T23:49:27.131Z,99239.47
2023-06-11T23:51:56.303Z,99241.56
2023-06-11T23:54:25.275Z,99242.63
2023-06-11T23:56:54.573Z,99247.75
2023-06-11T23:59:23.381Z,99233.50
